sensor_id;sensor_type;location;lat;lon;timestamp;temperature;humidity
21149;DHT22;10732;51.472;6.466;2023-05-10T00:00:33;13.20;99.90
21149;DHT22;10732;51.472;6.466;2023-05-10T00:02:59;13.10;99.90
21149;DHT22;10732;51.472;6.466;2023-05-10T00:05:24;13.10;99.90
21149;DHT22;10732;51.472;6.466;2023-05-10T00:07:50;13.10;99.90
21149;DHT22;10732;51.472;6.466;2023-05-10T00:10:16;13.00;99.90
21149;DHT22;10732;51.472;6.466;2023-05-10T00:12:41;13.00;99.90
21149;DHT22;10732;51.472;6.466;2023-05-10T00:15:08;13.00;99.90
21149;DHT22;10732;51.472;6.466;2023-05-10T00:17:33;13.00;99.90
21149;DHT22;10732;51.472;6.466;2023-05-10T00:19:59;13.00;99.90
21149;DHT22;10732;51.472;6.466;2023-05-10T00:22:25;13.00;99.90
21149;DHT22;10732;51.472;6.466;2023-05-10T00:24:51;13.10;99.90
21149;DHT22;10732;51.472;6.466;2023-05-10T00:27:16;13.00;99.90
21149;DHT22;10732;51.472;6.466;2023-05-10T00:29:42;13.00;99.90
21149;DHT22;10732;51.472;6.466;2023-05-10T00:32:07;13.00;99.90
21149;DHT22;10732;51.472;6.466;2023-05-10T00:34:33;13.00;99.90
21149;DHT22;10732;51.472;6.466;2023-05-10T00:36:58;13.00;99.90
21149;DHT22;10732;51.472;6.466;2023-05-10T00:39:24;13.00;99.90
21149;DHT22;10732;51.472;6.466;2023-05-10T00:41:49;12.90;99.90
21149;DHT22;10732;51.472;6.466;2023-05-10T00:44:15;12.90;99.90
21149;DHT22;10732;51.472;6.466;2023-05-10T00:46:41;12.90;99.90
21149;DHT22;10732;51.472;6.466;2023-05-10T00:49:07;12.90;99.90
21149;DHT22;10732;51.472;6.466;2023-05-10T00:51:32;12.90;99.90
21149;DHT22;10732;51.472;6.466;2023-05-10T00:53:58;13.00;99.90
21149;DHT22;10732;51.472;6.466;2023-05-10T00:56:25;12.90;99.90
21149;DHT22;10732;51.472;6.466;2023-05-10T00:58:50;12.90;99.90
21149;DHT22;10732;51.472;6.466;2023-05-10T01:01:16;12.90;99.90
21149;DHT22;10732;51.472;6.466;2023-05-10T01:03:43;12.90;99.90
21149;DHT22;10732;51.472;6.466;2023-05-10T01:06:09;12.90;99.90
21149;DHT22;10732;51.472;6.466;2023-05-10T01:08:35;13.00;99.90
21149;DHT22;10732;51.472;6.466;2023-05-10T01:11:01;13.00;99.90
21149;DHT22;10732;51.472;6.466;2023-05-10T01:13:31;13.00;99.90
21149;DHT22;10732;51.472;6.466;2023-05-10T01:15:58;13.00;99.90
21149;DHT22;10732;51.472;6.466;2023-05-10T01:18:25;12.90;99.90
21149;DHT22;10732;51.472;6.466;2023-05-10T01:21:00;12.90;99.90
21149;DHT22;10732;51.472;6.466;2023-05-10T01:26:21;12.90;99.90
21149;DHT22;10732;51.472;6.466;2023-05-10T01:29:14;12.80;99.90
21149;DHT22;10732;51.472;6.466;2023-05-10T01:34:44;12.80;99.90
21149;DHT22;10732;51.472;6.466;2023-05-10T01:37:16;12.80;99.90
21149;DHT22;10732;51.472;6.466;2023-05-10T01:39:49;12.70;99.90
21149;DHT22;10732;51.472;6.466;2023-05-10T01:42:21;12.80;99.90
21149;DHT22;10732;51.472;6.466;2023-05-10T01:47:46;12.80;99.90
21149;DHT22;10732;51.472;6.466;2023-05-10T01:50:20;12.80;99.90
21149;DHT22;10732;51.472;6.466;2023-05-10T01:52:51;12.90;99.90
21149;DHT22;10732;51.472;6.466;2023-05-10T01:55:21;12.90;99.90
21149;DHT22;10732;51.472;6.466;2023-05-10T01:57:52;12.90;99.90
21149;DHT22;10732;51.472;6.466;2023-05-10T02:00:20;12.90;99.90
21149;DHT22;10732;51.472;6.466;2023-05-10T02:02:47;12.90;99.90
21149;DHT22;10732;51.472;6.466;2023-05-10T02:05:15;12.80;99.90
21149;DHT22;10732;51.472;6.466;2023-05-10T02:07:41;12.90;99.90
21149;DHT22;10732;51.472;6.466;2023-05-10T02:10:09;12.80;99.90
21149;DHT22;10732;51.472;6.466;2023-05-10T02:12:37;12.80;99.90
21149;DHT22;10732;51.472;6.466;2023-05-10T02:15:05;12.80;99.90
21149;DHT22;10732;51.472;6.466;2023-05-10T02:17:32;12.80;99.90
21149;DHT22;10732;51.472;6.466;2023-05-10T02:19:59;12.80;99.90
21149;DHT22;10732;51.472;6.466;2023-05-10T02:22:27;12.80;99.90
21149;DHT22;10732;51.472;6.466;2023-05-10T02:24:55;12.80;99.90
21149;DHT22;10732;51.472;6.466;2023-05-10T02:27:23;12.90;99.90
21149;DHT22;10732;51.472;6.466;2023-05-10T02:29:50;12.80;99.90
21149;DHT22;10732;51.472;6.466;2023-05-10T02:32:17;12.80;99.90
21149;DHT22;10732;51.472;6.466;2023-05-10T02:34:43;12.90;99.90
21149;DHT22;10732;51.472;6.466;2023-05-10T02:37:13;12.80;99.90
21149;DHT22;10732;51.472;6.466;2023-05-10T02:39:39;12.80;99.90
21149;DHT22;10732;51.472;6.466;2023-05-10T02:42:11;12.90;99.90
21149;DHT22;10732;51.472;6.466;2023-05-10T02:44:41;12.80;99.90
21149;DHT22;10732;51.472;6.466;2023-05-10T02:47:07;12.80;99.90
21149;DHT22;10732;51.472;6.466;2023-05-10T02:49:33;12.80;99.90
21149;DHT22;10732;51.472;6.466;2023-05-10T02:52:01;12.80;99.90
21149;DHT22;10732;51.472;6.466;2023-05-10T02:54:33;12.80;99.90
21149;DHT22;10732;51.472;6.466;2023-05-10T02:57:04;12.80;99.90
21149;DHT22;10732;51.472;6.466;2023-05-10T02:59:30;12.80;99.90
21149;DHT22;10732;51.472;6.466;2023-05-10T03:01:56;12.80;99.90
21149;DHT22;10732;51.472;6.466;2023-05-10T03:04:21;12.90;99.90
21149;DHT22;10732;51.472;6.466;2023-05-10T03:06:47;12.80;99.90
21149;DHT22;10732;51.472;6.466;2023-05-10T03:09:13;12.80;99.90
21149;DHT22;10732;51.472;6.466;2023-05-10T03:17:10;12.80;99.90
21149;DHT22;10732;51.472;6.466;2023-05-10T03:20:03;12.80;99.90
21149;DHT22;10732;51.472;6.466;2023-05-10T03:22:46;12.80;99.90
21149;DHT22;10732;51.472;6.466;2023-05-10T03:25:15;12.80;99.90
21149;DHT22;10732;51.472;6.466;2023-05-10T03:27:43;12.80;99.90
21149;DHT22;10732;51.472;6.466;2023-05-10T03:30:11;12.80;99.90
21149;DHT22;10732;51.472;6.466;2023-05-10T03:32:37;12.80;99.90
21149;DHT22;10732;51.472;6.466;2023-05-10T03:35:10;12.80;99.90
21149;DHT22;10732;51.472;6.466;2023-05-10T03:37:37;12.80;99.90
21149;DHT22;10732;51.472;6.466;2023-05-10T03:40:03;12.90;99.90
21149;DHT22;10732;51.472;6.466;2023-05-10T03:42:28;12.90;99.90
21149;DHT22;10732;51.472;6.466;2023-05-10T03:44:55;12.80;99.90
21149;DHT22;10732;51.472;6.466;2023-05-10T03:47:20;12.80;99.90
21149;DHT22;10732;51.472;6.466;2023-05-10T03:49:47;12.90;99.90
21149;DHT22;10732;51.472;6.466;2023-05-10T03:52:12;12.90;99.90
21149;DHT22;10732;51.472;6.466;2023-05-10T03:54:38;12.90;99.90
21149;DHT22;10732;51.472;6.466;2023-05-10T03:57:03;12.90;99.90
21149;DHT22;10732;51.472;6.466;2023-05-10T03:59:29;12.90;99.90
21149;DHT22;10732;51.472;6.466;2023-05-10T04:01:55;12.90;99.90
21149;DHT22;10732;51.472;6.466;2023-05-10T04:04:21;12.90;99.90
21149;DHT22;10732;51.472;6.466;2023-05-10T04:06:47;12.80;99.90
21149;DHT22;10732;51.472;6.466;2023-05-10T04:09:12;12.90;99.90
21149;DHT22;10732;51.472;6.466;2023-05-10T04:11:38;12.90;99.90
21149;DHT22;10732;51.472;6.466;2023-05-10T04:14:04;12.90;99.90
21149;DHT22;10732;51.472;6.466;2023-05-10T04:16:30;12.90;99.90
21149;DHT22;10732;51.472;6.466;2023-05-10T04:18:55;12.90;99.90
21149;DHT22;10732;51.472;6.466;2023-05-10T04:21:21;12.90;99.90
21149;DHT22;10732;51.472;6.466;2023-05-10T04:23:46;12.90;99.90
21149;DHT22;10732;51.472;6.466;2023-05-10T04:26:13;12.90;99.90
21149;DHT22;10732;51.472;6.466;2023-05-10T04:28:38;12.90;99.90
21149;DHT22;10732;51.472;6.466;2023-05-10T04:31:06;13.00;99.90
21149;DHT22;10732;51.472;6.466;2023-05-10T04:33:32;13.00;99.90
21149;DHT22;10732;51.472;6.466;2023-05-10T04:35:57;13.00;99.90
21149;DHT22;10732;51.472;6.466;2023-05-10T04:38:23;13.00;99.90
21149;DHT22;10732;51.472;6.466;2023-05-10T04:40:48;13.00;99.90
21149;DHT22;10732;51.472;6.466;2023-05-10T04:43:14;13.00;99.90
21149;DHT22;10732;51.472;6.466;2023-05-10T04:45:40;13.00;99.90
21149;DHT22;10732;51.472;6.466;2023-05-10T04:48:05;13.00;99.90
21149;DHT22;10732;51.472;6.466;2023-05-10T04:50:31;13.00;99.90
21149;DHT22;10732;51.472;6.466;2023-05-10T04:52:57;13.00;99.90
21149;DHT22;10732;51.472;6.466;2023-05-10T04:55:22;13.00;99.90
21149;DHT22;10732;51.472;6.466;2023-05-10T04:57:48;13.00;99.90
21149;DHT22;10732;51.472;6.466;2023-05-10T05:00:14;13.10;99.90
21149;DHT22;10732;51.472;6.466;2023-05-10T05:02:43;13.10;99.90
21149;DHT22;10732;51.472;6.466;2023-05-10T05:05:09;13.10;99.90
21149;DHT22;10732;51.472;6.466;2023-05-10T05:07:35;13.00;99.90
21149;DHT22;10732;51.472;6.466;2023-05-10T05:10:01;13.10;99.90
21149;DHT22;10732;51.472;6.466;2023-05-10T05:12:26;13.10;99.90
21149;DHT22;10732;51.472;6.466;2023-05-10T05:14:52;13.20;99.90
21149;DHT22;10732;51.472;6.466;2023-05-10T05:17:17;13.20;99.90
21149;DHT22;10732;51.472;6.466;2023-05-10T05:19:43;13.20;99.90
21149;DHT22;10732;51.472;6.466;2023-05-10T05:22:08;13.20;99.90
21149;DHT22;10732;51.472;6.466;2023-05-10T05:24:37;13.20;99.90
21149;DHT22;10732;51.472;6.466;2023-05-10T05:27:03;13.20;99.90
21149;DHT22;10732;51.472;6.466;2023-05-10T05:29:29;13.20;99.90
21149;DHT22;10732;51.472;6.466;2023-05-10T05:31:55;13.30;99.90
21149;DHT22;10732;51.472;6.466;2023-05-10T05:34:20;13.20;99.90
21149;DHT22;10732;51.472;6.466;2023-05-10T05:36:47;13.10;99.90
21149;DHT22;10732;51.472;6.466;2023-05-10T05:39:13;13.10;99.90
21149;DHT22;10732;51.472;6.466;2023-05-10T05:41:38;13.20;99.90
21149;DHT22;10732;51.472;6.466;2023-05-10T05:44:04;13.10;99.90
21149;DHT22;10732;51.472;6.466;2023-05-10T05:46:29;13.10;99.90
21149;DHT22;10732;51.472;6.466;2023-05-10T05:48:55;13.10;99.90
21149;DHT22;10732;51.472;6.466;2023-05-10T05:51:21;13.10;99.90
21149;DHT22;10732;51.472;6.466;2023-05-10T05:53:46;13.20;99.90
21149;DHT22;10732;51.472;6.466;2023-05-10T05:56:12;13.20;99.90
21149;DHT22;10732;51.472;6.466;2023-05-10T05:58:37;13.30;99.90
21149;DHT22;10732;51.472;6.466;2023-05-10T06:01:03;13.30;99.90
21149;DHT22;10732;51.472;6.466;2023-05-10T06:03:28;13.30;99.90
21149;DHT22;10732;51.472;6.466;2023-05-10T06:05:54;13.30;99.90
21149;DHT22;10732;51.472;6.466;2023-05-10T06:08:19;13.40;99.90
21149;DHT22;10732;51.472;6.466;2023-05-10T06:10:45;13.40;99.90
21149;DHT22;10732;51.472;6.466;2023-05-10T06:13:11;13.40;99.90
21149;DHT22;10732;51.472;6.466;2023-05-10T06:15:37;13.40;99.90
21149;DHT22;10732;51.472;6.466;2023-05-10T06:18:03;13.40;99.90
21149;DHT22;10732;51.472;6.466;2023-05-10T06:20:28;13.40;99.90
21149;DHT22;10732;51.472;6.466;2023-05-10T06:22:56;13.30;99.90
21149;DHT22;10732;51.472;6.466;2023-05-10T06:25:22;13.30;99.90
21149;DHT22;10732;51.472;6.466;2023-05-10T06:27:48;13.40;99.90
21149;DHT22;10732;51.472;6.466;2023-05-10T06:30:14;13.40;99.90
21149;DHT22;10732;51.472;6.466;2023-05-10T06:32:40;13.40;99.90
21149;DHT22;10732;51.472;6.466;2023-05-10T06:35:06;13.50;99.90
21149;DHT22;10732;51.472;6.466;2023-05-10T06:37:33;13.50;99.90
21149;DHT22;10732;51.472;6.466;2023-05-10T06:39:58;13.60;99.90
21149;DHT22;10732;51.472;6.466;2023-05-10T06:42:24;13.70;99.90
21149;DHT22;10732;51.472;6.466;2023-05-10T06:44:51;13.70;99.90
21149;DHT22;10732;51.472;6.466;2023-05-10T06:47:16;13.70;99.90
21149;DHT22;10732;51.472;6.466;2023-05-10T06:49:42;13.70;99.90
21149;DHT22;10732;51.472;6.466;2023-05-10T06:52:08;13.60;99.90
21149;DHT22;10732;51.472;6.466;2023-05-10T06:54:33;13.50;99.90
21149;DHT22;10732;51.472;6.466;2023-05-10T06:56:59;13.40;99.90
21149;DHT22;10732;51.472;6.466;2023-05-10T06:59:24;13.40;99.90
21149;DHT22;10732;51.472;6.466;2023-05-10T07:01:50;13.40;99.90
21149;DHT22;10732;51.472;6.466;2023-05-10T07:04:16;13.40;99.90
21149;DHT22;10732;51.472;6.466;2023-05-10T07:06:42;13.50;99.90
21149;DHT22;10732;51.472;6.466;2023-05-10T07:09:08;13.70;99.90
21149;DHT22;10732;51.472;6.466;2023-05-10T07:11:34;13.90;99.90
21149;DHT22;10732;51.472;6.466;2023-05-10T07:13:59;14.20;99.90
21149;DHT22;10732;51.472;6.466;2023-05-10T07:16:25;14.50;99.90
21149;DHT22;10732;51.472;6.466;2023-05-10T07:18:51;14.60;99.90
21149;DHT22;10732;51.472;6.466;2023-05-10T07:21:18;14.70;99.90
21149;DHT22;10732;51.472;6.466;2023-05-10T07:23:43;14.80;99.90
21149;DHT22;10732;51.472;6.466;2023-05-10T07:26:09;14.50;99.90
21149;DHT22;10732;51.472;6.466;2023-05-10T07:28:35;14.30;99.90
21149;DHT22;10732;51.472;6.466;2023-05-10T07:31:02;14.10;99.90
21149;DHT22;10732;51.472;6.466;2023-05-10T07:33:28;14.10;99.90
21149;DHT22;10732;51.472;6.466;2023-05-10T07:35:53;14.20;99.90
21149;DHT22;10732;51.472;6.466;2023-05-10T07:38:19;14.20;99.90
21149;DHT22;10732;51.472;6.466;2023-05-10T07:40:44;14.10;99.90
21149;DHT22;10732;51.472;6.466;2023-05-10T07:43:10;13.90;99.90
21149;DHT22;10732;51.472;6.466;2023-05-10T07:45:35;13.80;99.90
21149;DHT22;10732;51.472;6.466;2023-05-10T07:48:01;13.80;99.90
21149;DHT22;10732;51.472;6.466;2023-05-10T07:50:27;13.90;99.90
21149;DHT22;10732;51.472;6.466;2023-05-10T07:52:52;14.10;99.90
21149;DHT22;10732;51.472;6.466;2023-05-10T07:55:18;14.30;99.90
21149;DHT22;10732;51.472;6.466;2023-05-10T07:57:44;14.80;99.90
21149;DHT22;10732;51.472;6.466;2023-05-10T08:00:12;15.10;99.90
21149;DHT22;10732;51.472;6.466;2023-05-10T08:02:38;15.90;99.90
21149;DHT22;10732;51.472;6.466;2023-05-10T08:05:04;17.40;99.90
21149;DHT22;10732;51.472;6.466;2023-05-10T08:07:30;18.40;99.90
21149;DHT22;10732;51.472;6.466;2023-05-10T08:09:56;18.30;99.90
21149;DHT22;10732;51.472;6.466;2023-05-10T08:12:21;18.50;99.90
21149;DHT22;10732;51.472;6.466;2023-05-10T08:14:47;18.20;99.90
21149;DHT22;10732;51.472;6.466;2023-05-10T08:17:12;18.30;99.90
21149;DHT22;10732;51.472;6.466;2023-05-10T08:19:38;18.80;99.90
21149;DHT22;10732;51.472;6.466;2023-05-10T08:22:03;18.40;99.90
21149;DHT22;10732;51.472;6.466;2023-05-10T08:24:29;17.80;99.90
21149;DHT22;10732;51.472;6.466;2023-05-10T08:26:54;17.70;99.90
21149;DHT22;10732;51.472;6.466;2023-05-10T08:29:20;17.90;99.90
21149;DHT22;10732;51.472;6.466;2023-05-10T08:31:45;17.60;99.90
21149;DHT22;10732;51.472;6.466;2023-05-10T08:34:11;18.00;99.90
21149;DHT22;10732;51.472;6.466;2023-05-10T08:36:36;18.20;99.90
21149;DHT22;10732;51.472;6.466;2023-05-10T08:39:02;18.10;99.90
21149;DHT22;10732;51.472;6.466;2023-05-10T08:41:28;18.00;99.90
21149;DHT22;10732;51.472;6.466;2023-05-10T08:43:55;18.10;99.90
21149;DHT22;10732;51.472;6.466;2023-05-10T08:46:22;17.70;99.90
21149;DHT22;10732;51.472;6.466;2023-05-10T08:48:49;17.20;99.90
21149;DHT22;10732;51.472;6.466;2023-05-10T08:51:18;16.50;99.90
21149;DHT22;10732;51.472;6.466;2023-05-10T08:53:45;16.30;99.90
21149;DHT22;10732;51.472;6.466;2023-05-10T08:56:11;16.10;99.90
21149;DHT22;10732;51.472;6.466;2023-05-10T08:58:37;15.90;99.90
21149;DHT22;10732;51.472;6.466;2023-05-10T09:01:04;15.80;99.90
21149;DHT22;10732;51.472;6.466;2023-05-10T09:03:30;15.90;99.90
21149;DHT22;10732;51.472;6.466;2023-05-10T09:05:56;16.00;99.90
21149;DHT22;10732;51.472;6.466;2023-05-10T09:08:25;15.90;99.90
21149;DHT22;10732;51.472;6.466;2023-05-10T09:10:52;16.00;99.90
21149;DHT22;10732;51.472;6.466;2023-05-10T09:13:19;15.80;99.90
21149;DHT22;10732;51.472;6.466;2023-05-10T09:15:46;15.80;99.90
21149;DHT22;10732;51.472;6.466;2023-05-10T09:18:12;15.50;99.90
21149;DHT22;10732;51.472;6.466;2023-05-10T09:20:38;15.40;99.90
21149;DHT22;10732;51.472;6.466;2023-05-10T09:23:03;15.30;99.90
21149;DHT22;10732;51.472;6.466;2023-05-10T09:25:29;15.20;99.90
21149;DHT22;10732;51.472;6.466;2023-05-10T09:27:55;15.10;99.90
21149;DHT22;10732;51.472;6.466;2023-05-10T09:32:49;15.20;99.90
21149;DHT22;10732;51.472;6.466;2023-05-10T09:35:17;15.30;99.90
21149;DHT22;10732;51.472;6.466;2023-05-10T09:37:45;15.40;99.90
21149;DHT22;10732;51.472;6.466;2023-05-10T09:40:13;15.30;99.90
21149;DHT22;10732;51.472;6.466;2023-05-10T09:42:41;15.40;99.90
21149;DHT22;10732;51.472;6.466;2023-05-10T09:45:07;15.40;99.90
21149;DHT22;10732;51.472;6.466;2023-05-10T09:47:36;15.10;99.90
21149;DHT22;10732;51.472;6.466;2023-05-10T09:50:03;15.10;99.90
21149;DHT22;10732;51.472;6.466;2023-05-10T09:53:06;15.20;99.90
21149;DHT22;10732;51.472;6.466;2023-05-10T09:55:42;14.90;99.90
21149;DHT22;10732;51.472;6.466;2023-05-10T09:58:12;15.00;99.90
21149;DHT22;10732;51.472;6.466;2023-05-10T10:00:43;14.90;99.90
21149;DHT22;10732;51.472;6.466;2023-05-10T10:03:14;14.70;99.90
21149;DHT22;10732;51.472;6.466;2023-05-10T10:05:41;14.70;99.90
21149;DHT22;10732;51.472;6.466;2023-05-10T10:08:08;14.60;99.90
21149;DHT22;10732;51.472;6.466;2023-05-10T10:10:34;14.60;99.90
21149;DHT22;10732;51.472;6.466;2023-05-10T10:13:01;14.80;99.90
21149;DHT22;10732;51.472;6.466;2023-05-10T10:15:27;15.10;99.90
21149;DHT22;10732;51.472;6.466;2023-05-10T10:17:53;15.30;99.90
21149;DHT22;10732;51.472;6.466;2023-05-10T10:20:20;15.60;99.90
21149;DHT22;10732;51.472;6.466;2023-05-10T10:22:47;15.80;99.90
21149;DHT22;10732;51.472;6.466;2023-05-10T10:25:15;16.00;99.90
21149;DHT22;10732;51.472;6.466;2023-05-10T10:30:43;15.80;99.90
21149;DHT22;10732;51.472;6.466;2023-05-10T10:36:33;15.70;99.90
21149;DHT22;10732;51.472;6.466;2023-05-10T10:39:09;15.80;99.90
21149;DHT22;10732;51.472;6.466;2023-05-10T10:41:37;15.70;99.90
21149;DHT22;10732;51.472;6.466;2023-05-10T10:47:03;15.80;99.90
21149;DHT22;10732;51.472;6.466;2023-05-10T10:49:32;15.80;99.90
21149;DHT22;10732;51.472;6.466;2023-05-10T10:52:21;15.90;99.90
21149;DHT22;10732;51.472;6.466;2023-05-10T10:55:00;15.70;99.90
21149;DHT22;10732;51.472;6.466;2023-05-10T10:57:27;15.80;99.90
21149;DHT22;10732;51.472;6.466;2023-05-10T11:00:18;15.70;99.90
21149;DHT22;10732;51.472;6.466;2023-05-10T11:02:45;15.90;99.90
21149;DHT22;10732;51.472;6.466;2023-05-10T11:08:00;16.20;99.90
21149;DHT22;10732;51.472;6.466;2023-05-10T11:10:31;16.30;99.90
21149;DHT22;10732;51.472;6.466;2023-05-10T11:13:05;16.40;99.90
21149;DHT22;10732;51.472;6.466;2023-05-10T11:15:48;16.60;99.90
21149;DHT22;10732;51.472;6.466;2023-05-10T11:18:18;16.40;99.90
21149;DHT22;10732;51.472;6.466;2023-05-10T11:20:45;16.40;99.90
21149;DHT22;10732;51.472;6.466;2023-05-10T11:23:15;16.30;99.90
21149;DHT22;10732;51.472;6.466;2023-05-10T11:25:45;16.30;99.90
21149;DHT22;10732;51.472;6.466;2023-05-10T11:28:12;16.30;99.90
21149;DHT22;10732;51.472;6.466;2023-05-10T11:30:42;16.10;99.90
21149;DHT22;10732;51.472;6.466;2023-05-10T11:33:09;16.30;99.90
21149;DHT22;10732;51.472;6.466;2023-05-10T11:35:41;16.40;99.90
21149;DHT22;10732;51.472;6.466;2023-05-10T11:38:07;16.40;99.90
21149;DHT22;10732;51.472;6.466;2023-05-10T11:40:34;16.30;99.90
21149;DHT22;10732;51.472;6.466;2023-05-10T11:42:59;16.40;99.90
21149;DHT22;10732;51.472;6.466;2023-05-10T11:45:25;16.60;99.90
21149;DHT22;10732;51.472;6.466;2023-05-10T11:47:51;16.80;99.90
21149;DHT22;10732;51.472;6.466;2023-05-10T11:50:17;16.70;99.90
21149;DHT22;10732;51.472;6.466;2023-05-10T11:52:43;17.10;99.90
21149;DHT22;10732;51.472;6.466;2023-05-10T11:55:09;17.20;99.90
21149;DHT22;10732;51.472;6.466;2023-05-10T11:57:35;17.50;99.90
21149;DHT22;10732;51.472;6.466;2023-05-10T12:00:04;17.60;99.90
21149;DHT22;10732;51.472;6.466;2023-05-10T12:02:30;17.90;99.90
21149;DHT22;10732;51.472;6.466;2023-05-10T12:04:56;17.50;99.90
21149;DHT22;10732;51.472;6.466;2023-05-10T12:07:21;17.60;99.90
21149;DHT22;10732;51.472;6.466;2023-05-10T12:10:07;17.70;99.90
21149;DHT22;10732;51.472;6.466;2023-05-10T12:12:38;18.30;99.90
21149;DHT22;10732;51.472;6.466;2023-05-10T12:15:05;18.50;99.90
21149;DHT22;10732;51.472;6.466;2023-05-10T12:17:31;18.40;99.90
21149;DHT22;10732;51.472;6.466;2023-05-10T12:20:19;18.80;99.90
21149;DHT22;10732;51.472;6.466;2023-05-10T12:22:53;19.20;99.90
21149;DHT22;10732;51.472;6.466;2023-05-10T12:25:21;19.20;99.90
21149;DHT22;10732;51.472;6.466;2023-05-10T12:27:54;19.10;99.90
21149;DHT22;10732;51.472;6.466;2023-05-10T12:30:22;19.10;99.90
21149;DHT22;10732;51.472;6.466;2023-05-10T12:32:48;18.80;99.90
21149;DHT22;10732;51.472;6.466;2023-05-10T12:35:14;18.60;99.90
21149;DHT22;10732;51.472;6.466;2023-05-10T12:37:41;18.40;99.90
21149;DHT22;10732;51.472;6.466;2023-05-10T12:40:08;18.60;99.90
21149;DHT22;10732;51.472;6.466;2023-05-10T12:42:35;18.60;99.90
21149;DHT22;10732;51.472;6.466;2023-05-10T12:45:04;18.60;99.90
21149;DHT22;10732;51.472;6.466;2023-05-10T12:47:34;18.20;99.90
21149;DHT22;10732;51.472;6.466;2023-05-10T12:50:01;18.30;99.90
21149;DHT22;10732;51.472;6.466;2023-05-10T12:52:27;18.40;99.90
21149;DHT22;10732;51.472;6.466;2023-05-10T12:54:53;18.60;99.90
21149;DHT22;10732;51.472;6.466;2023-05-10T12:57:20;18.60;99.90
21149;DHT22;10732;51.472;6.466;2023-05-10T12:59:46;18.60;99.90
21149;DHT22;10732;51.472;6.466;2023-05-10T13:02:11;18.60;99.90
21149;DHT22;10732;51.472;6.466;2023-05-10T13:04:37;18.50;99.90
21149;DHT22;10732;51.472;6.466;2023-05-10T13:07:08;19.00;99.90
21149;DHT22;10732;51.472;6.466;2023-05-10T13:09:33;18.90;99.90
21149;DHT22;10732;51.472;6.466;2023-05-10T13:11:59;18.60;99.90
21149;DHT22;10732;51.472;6.466;2023-05-10T13:14:25;18.60;99.90
21149;DHT22;10732;51.472;6.466;2023-05-10T13:16:50;18.80;99.90
21149;DHT22;10732;51.472;6.466;2023-05-10T13:19:16;19.00;99.90
21149;DHT22;10732;51.472;6.466;2023-05-10T13:21:43;19.10;99.90
21149;DHT22;10732;51.472;6.466;2023-05-10T13:24:10;18.70;99.90
21149;DHT22;10732;51.472;6.466;2023-05-10T13:26:36;18.60;99.90
21149;DHT22;10732;51.472;6.466;2023-05-10T13:29:02;18.40;99.90
21149;DHT22;10732;51.472;6.466;2023-05-10T13:31:28;18.80;99.90
21149;DHT22;10732;51.472;6.466;2023-05-10T13:33:54;18.80;99.90
21149;DHT22;10732;51.472;6.466;2023-05-10T13:36:20;18.70;99.90
21149;DHT22;10732;51.472;6.466;2023-05-10T13:38:45;18.40;99.90
21149;DHT22;10732;51.472;6.466;2023-05-10T13:41:11;18.30;99.90
21149;DHT22;10732;51.472;6.466;2023-05-10T13:43:36;18.60;99.90
21149;DHT22;10732;51.472;6.466;2023-05-10T13:46:02;18.80;99.90
21149;DHT22;10732;51.472;6.466;2023-05-10T13:48:28;19.00;99.90
21149;DHT22;10732;51.472;6.466;2023-05-10T13:50:53;19.10;99.90
21149;DHT22;10732;51.472;6.466;2023-05-10T13:53:19;18.40;99.90
21149;DHT22;10732;51.472;6.466;2023-05-10T13:55:45;18.20;99.90
21149;DHT22;10732;51.472;6.466;2023-05-10T13:58:10;18.60;99.90
21149;DHT22;10732;51.472;6.466;2023-05-10T14:00:36;18.80;99.90
21149;DHT22;10732;51.472;6.466;2023-05-10T14:03:01;18.80;99.90
21149;DHT22;10732;51.472;6.466;2023-05-10T14:05:27;19.00;99.90
21149;DHT22;10732;51.472;6.466;2023-05-10T14:07:53;19.10;99.90
21149;DHT22;10732;51.472;6.466;2023-05-10T14:10:19;18.70;99.90
21149;DHT22;10732;51.472;6.466;2023-05-10T14:12:45;19.00;99.90
21149;DHT22;10732;51.472;6.466;2023-05-10T14:15:10;19.20;99.90
21149;DHT22;10732;51.472;6.466;2023-05-10T14:17:37;19.10;99.90
21149;DHT22;10732;51.472;6.466;2023-05-10T14:20:02;19.10;99.90
21149;DHT22;10732;51.472;6.466;2023-05-10T14:22:29;19.00;99.90
21149;DHT22;10732;51.472;6.466;2023-05-10T14:24:54;18.90;99.90
21149;DHT22;10732;51.472;6.466;2023-05-10T14:27:20;18.60;99.90
21149;DHT22;10732;51.472;6.466;2023-05-10T14:29:47;18.10;99.90
21149;DHT22;10732;51.472;6.466;2023-05-10T14:32:13;17.50;99.90
21149;DHT22;10732;51.472;6.466;2023-05-10T14:34:38;17.20;99.90
21149;DHT22;10732;51.472;6.466;2023-05-10T14:37:04;17.10;99.90
21149;DHT22;10732;51.472;6.466;2023-05-10T14:39:29;16.60;99.90
21149;DHT22;10732;51.472;6.466;2023-05-10T14:41:55;16.50;99.90
21149;DHT22;10732;51.472;6.466;2023-05-10T14:44:21;16.60;99.90
21149;DHT22;10732;51.472;6.466;2023-05-10T14:46:47;16.60;99.90
21149;DHT22;10732;51.472;6.466;2023-05-10T14:49:13;16.60;99.90
21149;DHT22;10732;51.472;6.466;2023-05-10T14:51:39;16.60;99.90
21149;DHT22;10732;51.472;6.466;2023-05-10T14:54:04;16.70;99.90
21149;DHT22;10732;51.472;6.466;2023-05-10T14:56:31;16.70;99.90
21149;DHT22;10732;51.472;6.466;2023-05-10T14:58:57;16.50;99.90
21149;DHT22;10732;51.472;6.466;2023-05-10T15:01:23;16.30;99.90
21149;DHT22;10732;51.472;6.466;2023-05-10T15:03:48;16.20;99.90
21149;DHT22;10732;51.472;6.466;2023-05-10T15:06:14;16.10;99.90
21149;DHT22;10732;51.472;6.466;2023-05-10T15:08:41;16.10;99.90
21149;DHT22;10732;51.472;6.466;2023-05-10T15:11:07;16.00;99.90
21149;DHT22;10732;51.472;6.466;2023-05-10T15:13:32;16.00;99.90
21149;DHT22;10732;51.472;6.466;2023-05-10T15:15:58;15.90;99.90
21149;DHT22;10732;51.472;6.466;2023-05-10T15:18:23;15.90;99.90
21149;DHT22;10732;51.472;6.466;2023-05-10T15:20:49;16.00;99.90
21149;DHT22;10732;51.472;6.466;2023-05-10T15:23:14;16.10;99.90
21149;DHT22;10732;51.472;6.466;2023-05-10T15:25:40;16.10;99.90
21149;DHT22;10732;51.472;6.466;2023-05-10T15:28:06;16.10;99.90
21149;DHT22;10732;51.472;6.466;2023-05-10T15:30:31;16.30;99.90
21149;DHT22;10732;51.472;6.466;2023-05-10T15:32:57;16.20;99.90
21149;DHT22;10732;51.472;6.466;2023-05-10T15:35:23;16.00;99.90
21149;DHT22;10732;51.472;6.466;2023-05-10T15:37:48;16.10;99.90
21149;DHT22;10732;51.472;6.466;2023-05-10T15:40:14;16.00;99.90
21149;DHT22;10732;51.472;6.466;2023-05-10T15:42:40;16.00;99.90
21149;DHT22;10732;51.472;6.466;2023-05-10T15:45:06;16.00;99.90
21149;DHT22;10732;51.472;6.466;2023-05-10T15:47:32;15.90;99.90
21149;DHT22;10732;51.472;6.466;2023-05-10T15:49:58;15.80;99.90
21149;DHT22;10732;51.472;6.466;2023-05-10T15:52:23;15.70;99.90
21149;DHT22;10732;51.472;6.466;2023-05-10T15:54:49;15.50;99.90
21149;DHT22;10732;51.472;6.466;2023-05-10T15:57:15;15.60;99.90